Time;durP1;ratioP1;P1;durP2;ratioP2;P2;SDS_P1;SDS_P2;PMS_P1;PMS_P2;Temp;Humidity;BMP_temperature;BMP_pressure;BME280_temperature;BME280_humidity;BME280_pressure;Samples;Min_cycle;Max_cycle;Signal;HPM_P1;HPM_P2
2024/04/13 00:01:19;;;;;;;7.03;3.40;;;10.00;1.00;;;;;;5418073;26;20509;-76
2024/04/13 00:03:48;;;;;;;6.30;3.37;;;10.00;1.00;;;;;;5417970;26;20578;-76
2024/04/13 00:06:13;;;;;;;7.63;3.03;;;10.00;1.00;;;;;;5418333;26;20453;-76
2024/04/13 00:08:42;;;;;;;3.10;2.67;;;10.00;1.00;;;;;;5417544;26;20501;-76
2024/04/13 00:11:08;;;;;;;6.93;3.90;;;10.00;1.00;;;;;;5418019;26;20278;-75
2024/04/13 00:13:37;;;;;;;3.67;3.27;;;10.00;1.00;;;;;;5417236;26;20543;-76
2024/04/13 00:16:03;;;;;;;7.57;3.63;;;10.10;1.00;;;;;;5417854;26;20466;-76
2024/04/13 00:18:32;;;;;;;6.83;3.80;;;10.10;1.00;;;;;;5417067;26;20422;-75
2024/04/13 00:20:58;;;;;;;5.33;3.17;;;10.10;1.00;;;;;;5418100;26;20581;-75
2024/04/13 00:23:24;;;;;;;5.23;3.30;;;10.10;1.00;;;;;;5417927;26;21322;-75
2024/04/13 00:25:51;;;;;;;9.60;3.00;;;10.10;1.00;;;;;;5417725;26;20494;-76
2024/04/13 00:28:18;;;;;;;6.63;3.07;;;10.10;1.00;;;;;;5417060;26;20476;-75
2024/04/13 00:30:43;;;;;;;8.70;3.50;;;10.10;1.00;;;;;;5416659;26;21049;-76
2024/04/13 00:33:12;;;;;;;5.60;3.40;;;10.10;1.00;;;;;;5417682;26;20423;-77
2024/04/13 00:35:38;;;;;;;4.80;2.73;;;10.10;1.00;;;;;;5417820;26;20586;-75
2024/04/13 00:38:04;;;;;;;3.03;2.73;;;10.10;1.00;;;;;;5416574;26;20483;-76
2024/04/13 00:40:30;;;;;;;9.37;3.17;;;10.10;1.00;;;;;;5417575;26;20238;-75
2024/04/13 00:43:09;;;;;;;4.90;3.80;;;10.20;1.00;;;;;;5417812;26;20475;-75
2024/04/13 00:45:44;;;;;;;4.70;2.90;;;10.10;1.00;;;;;;5417852;26;20254;-75
2024/04/13 00:48:18;;;;;;;4.50;3.23;;;10.10;1.00;;;;;;5416477;26;20505;-75
2024/04/13 00:50:47;;;;;;;4.90;3.47;;;10.10;1.00;;;;;;5416818;26;20462;-76
2024/04/13 00:53:19;;;;;;;5.70;3.23;;;10.10;1.00;;;;;;5417233;26;20429;-75
2024/04/13 00:55:47;;;;;;;3.83;2.90;;;10.00;1.00;;;;;;5417333;26;20430;-75
2024/04/13 00:58:13;;;;;;;4.80;3.40;;;9.90;1.00;;;;;;5416433;26;20505;-76
2024/04/13 01:00:40;;;;;;;3.73;3.30;;;9.90;1.00;;;;;;5417140;26;20528;-75
2024/04/13 01:03:08;;;;;;;12.03;4.17;;;9.80;1.00;;;;;;5417259;26;21010;-76
2024/04/13 01:05:35;;;;;;;4.30;3.30;;;9.80;1.00;;;;;;5385951;26;20503;-76
2024/04/13 01:08:01;;;;;;;7.53;4.00;;;9.80;1.00;;;;;;5416096;26;21015;-75
2024/04/13 01:10:27;;;;;;;7.90;3.20;;;9.70;1.00;;;;;;5416016;26;21010;-75
2024/04/13 01:12:54;;;;;;;9.27;4.00;;;9.70;1.00;;;;;;5402761;26;20855;-76
2024/04/13 01:15:20;;;;;;;12.17;4.73;;;9.70;1.00;;;;;;5416932;26;20481;-76
2024/04/13 01:17:48;;;;;;;5.73;4.27;;;9.70;1.00;;;;;;5416675;26;20971;-76
2024/04/13 01:20:14;;;;;;;4.63;3.63;;;9.70;1.00;;;;;;5385479;26;20229;-76
2024/04/13 01:22:44;;;;;;;6.03;4.40;;;9.60;1.00;;;;;;5385627;26;20472;-76
2024/04/13 01:25:15;;;;;;;10.10;4.03;;;9.50;1.00;;;;;;5416857;26;20452;-76
2024/04/13 01:27:41;;;;;;;5.97;3.70;;;9.50;1.00;;;;;;5416636;26;20446;-76
2024/04/13 01:30:11;;;;;;;5.00;3.70;;;9.50;1.00;;;;;;5383632;26;20448;-75
2024/04/13 01:32:37;;;;;;;4.27;3.43;;;9.50;1.00;;;;;;5416280;26;20452;-76
2024/04/13 01:35:13;;;;;;;8.63;5.07;;;9.50;1.00;;;;;;5416802;26;20476;-76
2024/04/13 01:37:39;;;;;;;5.20;3.97;;;9.60;1.00;;;;;;5416872;26;20484;-76
2024/04/13 01:40:07;;;;;;;8.93;4.13;;;9.50;1.00;;;;;;5415828;26;21248;-76
2024/04/13 01:42:36;;;;;;;4.40;3.67;;;9.40;1.00;;;;;;5416336;26;20472;-76
2024/04/13 01:45:11;;;;;;;8.53;4.20;;;9.40;1.00;;;;;;5416699;26;20488;-75
2024/04/13 01:47:38;;;;;;;14.97;5.00;;;9.30;1.00;;;;;;5416683;26;20476;-76
2024/04/13 01:50:14;;;;;;;;;;;;;;;;;;;;;
2024/04/13 01:52:43;;;;;;;11.10;4.67;;;9.30;1.00;;;;;;5415928;26;20812;-76
2024/04/13 01:55:08;;;;;;;6.67;4.70;;;9.30;1.00;;;;;;5416210;26;20971;-75
2024/04/13 01:57:34;;;;;;;6.37;4.33;;;9.30;1.00;;;;;;5416454;26;20531;-75
2024/04/13 02:00:00;;;;;;;10.83;4.03;;;9.20;1.00;;;;;;5415348;26;20311;-75
2024/04/13 02:02:36;;;;;;;7.60;4.73;;;9.20;1.00;;;;;;5415956;26;20799;-75
2024/04/13 02:05:02;;;;;;;11.03;5.87;;;9.20;1.00;;;;;;5385779;26;20286;-75
2024/04/13 02:07:29;;;;;;;8.47;5.10;;;9.20;1.00;;;;;;5419862;26;20538;-74
2024/04/13 02:09:54;;;;;;;8.40;4.93;;;9.20;1.00;;;;;;5418044;26;20463;-75
2024/04/13 02:12:21;;;;;;;7.70;5.47;;;9.10;1.00;;;;;;5420061;26;20426;-74
2024/04/13 02:14:47;;;;;;;10.60;4.60;;;9.10;26.20;;;;;;5419537;26;20213;-74
2024/04/13 02:17:13;;;;;;;9.43;5.07;;;9.10;49.40;;;;;;5419749;26;20472;-75
2024/04/13 02:19:39;;;;;;;8.30;5.80;;;9.20;72.40;;;;;;5387392;26;20233;-74
2024/04/13 02:22:04;;;;;;;10.80;4.43;;;9.20;80.50;;;;;;5419884;26;20451;-76
2024/04/13 02:24:30;;;;;;;9.47;5.27;;;9.20;92.50;;;;;;5419487;26;20537;-76
2024/04/13 02:26:57;;;;;;;13.67;5.73;;;9.20;99.90;;;;;;5418521;26;20215;-75
2024/04/13 02:29:23;;;;;;;15.23;5.57;;;9.30;99.90;;;;;;5418428;26;20308;-75
2024/04/13 02:31:49;;;;;;;9.60;4.47;;;9.20;99.90;;;;;;5419357;26;20416;-74
2024/04/13 02:34:15;;;;;;;10.53;6.07;;;9.20;99.90;;;;;;5419465;26;20580;-74
2024/04/13 02:36:40;;;;;;;9.80;5.43;;;9.20;99.90;;;;;;5419499;26;20266;-76
2024/04/13 02:39:09;;;;;;;9.57;5.17;;;9.20;99.90;;;;;;5418187;26;20474;-75
2024/04/13 02:41:39;;;;;;;9.13;4.77;;;9.20;99.90;;;;;;5419536;26;20224;-76
2024/04/13 02:44:04;;;;;;;5.60;4.90;;;9.20;99.90;;;;;;5418203;26;20443;-76
2024/04/13 02:46:30;;;;;;;9.57;3.80;;;9.20;99.90;;;;;;5419260;26;20427;-75
2024/04/13 02:48:56;;;;;;;15.90;6.00;;;9.20;99.90;;;;;;5418228;26;20209;-74
2024/04/13 02:51:24;;;;;;;9.27;4.27;;;9.20;99.90;;;;;;5419156;26;20332;-75
2024/04/13 02:53:50;;;;;;;8.13;5.33;;;9.20;99.90;;;;;;5419151;26;20217;-76
2024/04/13 02:56:15;;;;;;;11.47;4.80;;;9.20;99.90;;;;;;5419233;26;20452;-76
2024/04/13 02:58:41;;;;;;;12.67;5.57;;;9.20;99.90;;;;;;5418097;26;20273;-76
2024/04/13 03:01:07;;;;;;;11.00;5.20;;;9.30;99.90;;;;;;5386877;26;20631;-75
2024/04/13 03:03:33;;;;;;;7.83;5.03;;;9.30;99.90;;;;;;5419002;26;20447;-74
2024/04/13 03:06:01;;;;;;;11.30;4.80;;;9.30;99.90;;;;;;5419105;26;20221;-76
2024/04/13 03:08:27;;;;;;;8.20;5.63;;;9.40;99.90;;;;;;5386677;26;20495;-75
2024/04/13 03:10:54;;;;;;;7.03;4.83;;;9.30;99.90;;;;;;5419049;26;20515;-75
2024/04/13 03:13:20;;;;;;;15.07;5.93;;;9.40;99.90;;;;;;5418731;26;20447;-76
2024/04/13 03:15:46;;;;;;;16.20;5.43;;;9.40;99.90;;;;;;5417849;26;20485;-77
2024/04/13 03:18:11;;;;;;;5.87;5.10;;;9.40;99.90;;;;;;5385221;26;20220;-76
2024/04/13 03:20:37;;;;;;;12.30;5.40;;;9.30;99.90;;;;;;5418659;26;20711;-75
2024/04/13 03:23:04;;;;;;;16.50;5.27;;;9.40;99.90;;;;;;5418982;26;20316;-75
2024/04/13 03:25:29;;;;;;;7.47;5.10;;;9.40;99.90;;;;;;5419058;26;20663;-76
2024/04/13 03:27:55;;;;;;;18.10;5.07;;;9.40;99.90;;;;;;5417593;26;20448;-74
2024/04/13 03:30:21;;;;;;;8.97;5.70;;;9.40;99.90;;;;;;5418515;26;20230;-76
2024/04/13 03:32:46;;;;;;;13.37;5.23;;;9.40;99.90;;;;;;5418835;26;20280;-74
2024/04/13 03:35:12;;;;;;;7.27;4.47;;;9.40;99.90;;;;;;5417900;26;20214;-74
2024/04/13 03:37:38;;;;;;;17.20;6.70;;;9.40;99.90;;;;;;5418319;26;20222;-76
2024/04/13 03:40:05;;;;;;;8.00;5.63;;;9.40;99.90;;;;;;5417561;26;20233;-74
2024/04/13 03:42:32;;;;;;;6.83;4.87;;;9.40;99.90;;;;;;5418439;26;20321;-75
2024/04/13 03:44:58;;;;;;;14.23;5.70;;;9.40;99.90;;;;;;5418333;26;20451;-74
2024/04/13 03:47:23;;;;;;;12.80;5.37;;;9.40;99.90;;;;;;5386796;26;20496;-74
2024/04/13 03:49:49;;;;;;;13.80;5.23;;;9.50;99.90;;;;;;5417161;26;21013;-74
2024/04/13 03:52:15;;;;;;;9.60;4.67;;;9.50;99.90;;;;;;5386665;26;20221;-77
2024/04/13 03:54:41;;;;;;;7.50;5.00;;;9.50;99.90;;;;;;5417800;26;20292;-74
2024/04/13 03:57:07;;;;;;;17.63;5.47;;;9.50;99.90;;;;;;5386715;26;20285;-75
2024/04/13 03:59:33;;;;;;;8.90;4.37;;;9.50;99.90;;;;;;5417220;26;20448;-74
2024/04/13 04:02:00;;;;;;;7.93;4.37;;;9.50;1.00;;;;;;5418173;26;20262;-75
2024/04/13 04:04:26;;;;;;;9.27;4.97;;;9.50;1.00;;;;;;5417874;26;20227;-76
2024/04/13 04:06:52;;;;;;;6.27;4.40;;;9.50;1.00;;;;;;5418397;26;20480;-74
2024/04/13 04:09:17;;;;;;;8.83;4.50;;;9.60;1.00;;;;;;5385600;26;20792;-76
2024/04/13 04:11:43;;;;;;;7.17;5.23;;;9.70;1.00;;;;;;5417665;26;20227;-75
2024/04/13 04:14:09;;;;;;;11.70;4.53;;;9.70;1.00;;;;;;5417318;26;20746;-74
2024/04/13 04:16:34;;;;;;;7.27;4.47;;;9.70;1.00;;;;;;5386331;26;20238;-74
2024/04/13 04:19:00;;;;;;;7.20;5.07;;;9.70;1.00;;;;;;5417169;26;20216;-76
2024/04/13 04:21:26;;;;;;;7.23;4.47;;;9.70;1.00;;;;;;5417869;26;20223;-75
2024/04/13 04:23:51;;;;;;;5.70;3.93;;;9.70;1.00;;;;;;5417886;26;20355;-75
2024/04/13 04:26:17;;;;;;;13.80;4.53;;;9.80;1.00;;;;;;5386687;26;20258;-74
2024/04/13 04:28:43;;;;;;;8.53;5.00;;;9.70;1.00;;;;;;5416345;26;20208;-75
2024/04/13 04:31:12;;;;;;;7.93;3.80;;;9.80;1.00;;;;;;5417262;26;20242;-75
2024/04/13 04:33:38;;;;;;;5.67;3.50;;;9.70;1.00;;;;;;5417588;26;20273;-75
2024/04/13 04:36:05;;;;;;;12.93;4.70;;;9.80;1.00;;;;;;5417578;26;20422;-74
2024/04/13 04:38:31;;;;;;;7.70;4.87;;;9.80;1.00;;;;;;5385052;26;20427;-74
2024/04/13 04:40:56;;;;;;;7.60;4.60;;;9.80;1.00;;;;;;5417805;26;20915;-74
2024/04/13 04:43:22;;;;;;;7.70;5.00;;;9.80;1.00;;;;;;5386150;26;20232;-74
2024/04/13 04:45:48;;;;;;;7.27;4.57;;;9.80;1.00;;;;;;5417446;26;20309;-74
2024/04/13 04:48:13;;;;;;;6.20;4.33;;;9.80;1.00;;;;;;5415791;26;20683;-74
2024/04/13 04:50:39;;;;;;;9.60;4.53;;;9.80;1.00;;;;;;5417392;26;20273;-76
2024/04/13 04:53:05;;;;;;;7.73;4.37;;;9.90;1.00;;;;;;5417460;26;20223;-75
2024/04/13 04:55:30;;;;;;;12.30;4.00;;;9.90;1.00;;;;;;5417448;26;20216;-74
2024/04/13 04:57:56;;;;;;;10.53;5.53;;;9.90;1.00;;;;;;5416301;26;20213;-76
2024/04/13 05:00:23;;;;;;;6.10;4.10;;;9.90;1.00;;;;;;5417256;26;20236;-74
2024/04/13 05:02:49;;;;;;;9.13;4.40;;;10.00;1.00;;;;;;5417251;26;20427;-76
2024/04/13 05:05:15;;;;;;;6.10;4.67;;;10.00;1.00;;;;;;5416226;26;20223;-76
2024/04/13 05:07:40;;;;;;;9.53;4.83;;;10.00;1.00;;;;;;5417166;26;20221;-76
2024/04/13 05:10:08;;;;;;;7.10;4.53;;;10.00;1.00;;;;;;5416172;26;20577;-74
2024/04/13 05:12:34;;;;;;;11.00;4.10;;;10.10;1.00;;;;;;5416830;26;20231;-76
2024/04/13 05:14:59;;;;;;;6.73;4.07;;;10.10;1.00;;;;;;5417317;26;20546;-76
2024/04/13 05:17:25;;;;;;;9.57;4.93;;;10.10;1.00;;;;;;5417154;26;20264;-76
2024/04/13 05:19:51;;;;;;;6.23;3.40;;;10.20;1.00;;;;;;5415896;26;20701;-75
2024/04/13 05:22:17;;;;;;;9.97;4.03;;;10.20;1.00;;;;;;5417043;26;20230;-76
2024/04/13 05:24:43;;;;;;;9.53;5.13;;;10.20;1.00;;;;;;5416179;26;20253;-76
2024/04/13 05:27:09;;;;;;;7.73;4.30;;;10.20;1.00;;;;;;5385103;26;20438;-76
2024/04/13 05:29:35;;;;;;;7.13;4.70;;;10.30;1.00;;;;;;5415866;26;20885;-76
2024/04/13 05:32:02;;;;;;;9.23;5.07;;;10.40;1.00;;;;;;5416697;26;20450;-74
2024/04/13 05:34:28;;;;;;;9.57;4.23;;;10.40;1.00;;;;;;5416619;26;20543;-74
2024/04/13 05:36:54;;;;;;;8.70;3.97;;;10.50;1.00;;;;;;5385562;26;20465;-76
2024/04/13 05:39:20;;;;;;;5.57;4.70;;;10.60;1.00;;;;;;5415594;26;20227;-74
2024/04/13 05:41:46;;;;;;;7.17;4.60;;;10.70;1.00;;;;;;5420021;26;20276;-76
2024/04/13 05:44:11;;;;;;;7.40;4.83;;;10.70;1.00;;;;;;5387896;26;20461;-76
2024/04/13 05:46:37;;;;;;;5.13;3.90;;;10.80;1.00;;;;;;5420067;26;20223;-74
2024/04/13 05:49:02;;;;;;;7.20;4.37;;;10.80;1.00;;;;;;5387600;26;20248;-75
2024/04/13 05:51:28;;;;;;;7.63;4.33;;;10.80;1.00;;;;;;5420199;26;20267;-74
2024/04/13 05:53:54;;;;;;;4.70;3.80;;;10.80;1.00;;;;;;5419850;26;20224;-76
2024/04/13 05:56:20;;;;;;;5.73;4.03;;;10.90;1.00;;;;;;5419950;26;20572;-74
2024/04/13 05:58:46;;;;;;;7.00;4.63;;;10.90;1.00;;;;;;5387293;26;20510;-75
2024/04/13 06:01:11;;;;;;;5.30;3.63;;;10.90;1.00;;;;;;5419844;26;20293;-74
2024/04/13 06:03:38;;;;;;;4.20;3.73;;;11.00;1.00;;;;;;5419018;26;20268;-76
2024/04/13 06:06:04;;;;;;;9.70;4.67;;;11.00;1.00;;;;;;5419843;26;20231;-76
2024/04/13 06:08:30;;;;;;;8.90;5.13;;;11.00;1.00;;;;;;5418655;26;20448;-76
2024/04/13 06:10:56;;;;;;;4.90;2.87;;;11.10;1.00;;;;;;5419846;26;20235;-76
2024/04/13 06:13:22;;;;;;;8.20;4.20;;;11.20;1.00;;;;;;5419846;26;20590;-76
2024/04/13 06:15:48;;;;;;;12.87;4.50;;;11.20;1.00;;;;;;5419616;26;20217;-74
2024/04/13 06:18:15;;;;;;;5.03;3.67;;;11.30;1.00;;;;;;5387549;26;20450;-74
2024/04/13 06:20:41;;;;;;;8.63;3.73;;;11.30;1.00;;;;;;5418904;26;20334;-72
2024/04/13 06:23:07;;;;;;;6.30;3.57;;;11.40;1.00;;;;;;5419220;26;20475;-73
2024/04/13 06:25:32;;;;;;;5.30;3.80;;;11.50;1.00;;;;;;5388037;26;20419;-71
2024/04/13 06:27:58;;;;;;;7.27;3.83;;;11.50;1.00;;;;;;5418519;26;20423;-72
2024/04/13 06:30:24;;;;;;;6.80;3.63;;;11.60;1.00;;;;;;5419306;26;20278;-72
2024/04/13 06:32:50;;;;;;;5.30;4.17;;;11.70;1.00;;;;;;5419518;26;20476;-71
2024/04/13 06:35:16;;;;;;;4.63;3.03;;;11.80;1.00;;;;;;5419287;26;20219;-71
2024/04/13 06:37:42;;;;;;;12.83;3.93;;;11.90;1.00;;;;;;5419436;26;20509;-74
2024/04/13 06:40:08;;;;;;;7.73;3.67;;;12.00;1.00;;;;;;5386445;26;20711;-72
2024/04/13 06:42:34;;;;;;;3.97;3.67;;;12.10;99.90;;;;;;5419052;26;20222;-71
2024/04/13 06:45:00;;;;;;;4.50;3.37;;;12.20;99.90;;;;;;5387981;26;20773;-71
2024/04/13 06:47:27;;;;;;;3.90;3.10;;;12.30;99.90;;;;;;5419116;26;20542;-72
2024/04/13 06:49:53;;;;;;;7.27;3.17;;;12.40;99.90;;;;;;5418021;26;20554;-74
2024/04/13 06:52:19;;;;;;;5.90;3.37;;;12.50;99.90;;;;;;5419178;26;20987;-72
2024/04/13 06:54:44;;;;;;;5.90;3.70;;;12.60;99.90;;;;;;5418998;26;20938;-73
2024/04/13 06:57:10;;;;;;;5.57;3.30;;;12.60;99.90;;;;;;5418958;26;20428;-72
2024/04/13 06:59:37;;;;;;;11.50;3.40;;;12.70;99.90;;;;;;5417250;26;20341;-73
2024/04/13 07:02:03;;;;;;;4.63;4.20;;;12.70;99.90;;;;;;5418875;26;20261;-74
2024/04/13 07:04:29;;;;;;;5.07;3.27;;;12.90;99.90;;;;;;5419108;26;20460;-73
2024/04/13 07:07:05;;;;;;;3.90;3.10;;;13.00;99.90;;;;;;5418968;26;20498;-74
2024/04/13 07:09:31;;;;;;;6.80;3.50;;;13.00;99.90;;;;;;5386398;26;20480;-74
2024/04/13 07:12:33;;;;;;;6.80;4.50;;;13.00;99.90;;;;;;5387105;26;20465;-72
2024/04/13 07:14:59;;;;;;;3.70;3.40;;;13.10;99.90;;;;;;5399010;26;20521;-74
2024/04/13 07:17:25;;;;;;;3.93;2.93;;;13.20;99.90;;;;;;5418834;26;20479;-74
2024/04/13 07:19:51;;;;;;;4.93;2.93;;;13.20;99.90;;;;;;5416708;26;20470;-74
2024/04/13 07:22:17;;;;;;;6.60;3.57;;;13.40;99.90;;;;;;5387273;26;20457;-73
2024/04/13 07:24:43;;;;;;;4.60;2.63;;;13.40;99.90;;;;;;5418482;26;20497;-75
2024/04/13 07:27:09;;;;;;;6.20;3.50;;;13.50;99.90;;;;;;5418318;26;20458;-74
2024/04/13 07:29:35;;;;;;;4.10;3.20;;;13.60;99.90;;;;;;5417578;26;20573;-75
2024/04/13 07:32:04;;;;;;;8.97;2.83;;;13.70;99.90;;;;;;5418796;26;20325;-72
2024/04/13 07:34:30;;;;;;;7.97;3.70;;;13.80;99.90;;;;;;5418505;26;20451;-76
2024/04/13 07:36:56;;;;;;;3.00;2.80;;;13.70;99.90;;;;;;5417762;26;20546;-76
2024/04/13 07:39:21;;;;;;;3.60;2.67;;;13.60;99.90;;;;;;5417552;26;20978;-75
2024/04/13 07:41:47;;;;;;;4.70;3.47;;;13.60;99.90;;;;;;5418568;26;20217;-75
2024/04/13 07:44:13;;;;;;;3.33;3.03;;;13.60;99.90;;;;;;5418765;26;20262;-75
2024/04/13 07:46:39;;;;;;;3.83;3.50;;;13.70;99.90;;;;;;5386883;26;20238;-76
2024/04/13 07:49:24;;;;;;;;;;;;;;;;;;;;;
2024/04/13 07:51:51;;;;;;;9.27;3.17;;;13.70;99.90;;;;;;5418709;26;20496;-76
2024/04/13 07:54:16;;;;;;;9.07;4.53;;;13.70;99.90;;;;;;5417802;26;20525;-76
2024/04/13 07:56:43;;;;;;;4.87;3.37;;;13.90;99.90;;;;;;5417984;26;20561;-75
2024/04/13 07:59:09;;;;;;;4.20;3.20;;;14.00;99.90;;;;;;5386187;26;21003;-75
2024/04/13 08:01:35;;;;;;;3.40;3.10;;;13.90;99.90;;;;;;5418308;26;20270;-75
2024/04/13 08:04:01;;;;;;;6.53;3.40;;;13.90;99.90;;;;;;5417255;26;20512;-76
2024/04/13 08:06:40;;;;;;;;;;;;;;;;;;;;;
2024/04/13 08:09:07;;;;;;;5.73;3.57;;;13.80;95.40;;;;;;5417426;26;20474;-75
2024/04/13 08:11:33;;;;;;;3.80;3.40;;;13.90;96.30;;;;;;5418208;26;20438;-75
2024/04/13 08:13:59;;;;;;;4.93;2.83;;;14.10;97.30;;;;;;5417210;26;20783;-76
2024/04/13 08:16:25;;;;;;;3.37;3.07;;;14.10;83.60;;;;;;5417934;26;20541;-75
2024/04/13 08:18:51;;;;;;;3.17;2.87;;;14.00;60.10;;;;;;5417101;26;20498;-75
2024/04/13 08:21:17;;;;;;;3.43;3.13;;;14.00;39.80;;;;;;5417849;26;20510;-75
2024/04/13 08:23:43;;;;;;;7.80;2.93;;;14.10;38.00;;;;;;5417919;26;20568;-76
2024/04/13 08:26:09;;;;;;;6.33;3.30;;;14.10;36.20;;;;;;5417990;26;20461;-75
2024/04/13 08:28:35;;;;;;;4.20;3.47;;;14.20;7.80;;;;;;5417138;26;21012;-76
2024/04/13 08:31:05;;;;;;;5.13;2.77;;;14.40;1.00;;;;;;5417517;26;20464;-75
2024/04/13 08:33:41;;;;;;;5.83;3.10;;;14.40;1.00;;;;;;5417358;26;20231;-75
2024/04/13 08:37:08;;;;;;;3.40;3.10;;;14.40;1.00;;;;;;5417753;26;20496;-75
2024/04/13 08:39:35;;;;;;;8.77;2.50;;;14.60;1.00;;;;;;5426054;26;20466;-75
2024/04/13 08:42:14;;;;;;;5.20;3.40;;;14.70;1.00;;;;;;5453635;26;20975;-76
2024/04/13 08:45:25;;;;;;;3.00;2.80;;;14.90;1.00;;;;;;5453503;26;20444;-76
2024/04/13 08:47:53;;;;;;;2.80;2.60;;;15.00;1.00;;;;;;5452763;26;20450;-76
2024/04/13 08:50:19;;;;;;;3.13;2.30;;;14.90;1.00;;;;;;5453477;26;20510;-76
2024/04/13 08:52:46;;;;;;;6.60;3.10;;;15.00;1.00;;;;;;5452569;26;20444;-76
2024/04/13 08:55:12;;;;;;;5.13;2.60;;;15.00;1.00;;;;;;5453354;26;20447;-75
2024/04/13 08:57:43;;;;;;;7.20;3.30;;;15.10;1.00;;;;;;5453486;26;20496;-75
2024/04/13 09:00:15;;;;;;;6.03;2.80;;;15.00;1.00;;;;;;5452769;26;20503;-75
2024/04/13 09:02:44;;;;;;;8.40;3.70;;;15.00;1.00;;;;;;5421475;26;20977;-76
2024/04/13 09:05:15;;;;;;;4.50;2.93;;;15.30;1.00;;;;;;5453071;26;20461;-77
2024/04/13 09:07:42;;;;;;;2.70;2.50;;;15.50;1.00;;;;;;5453217;26;20508;-76
2024/04/13 09:10:11;;;;;;;3.40;2.63;;;15.40;1.00;;;;;;5451648;26;20464;-75
2024/04/13 09:12:37;;;;;;;5.07;2.97;;;15.40;1.00;;;;;;5453085;26;20443;-75
2024/04/13 09:15:04;;;;;;;3.93;3.20;;;15.40;99.90;;;;;;5451456;26;20869;-75
2024/04/13 09:17:36;;;;;;;7.40;2.87;;;15.40;99.90;;;;;;5453143;26;20520;-75
2024/04/13 09:23:02;;;;;;;2.90;2.33;;;15.50;99.90;;;;;;5433945;26;20562;-76
2024/04/13 09:25:29;;;;;;;6.50;2.80;;;15.60;99.90;;;;;;5453161;26;20440;-75
2024/04/13 09:31:21;;;;;;;2.50;2.20;;;15.90;99.90;;;;;;5452923;26;20501;-75
2024/04/13 09:33:50;;;;;;;2.80;2.07;;;15.70;99.90;;;;;;5452597;26;20973;-76
2024/04/13 09:36:21;;;;;;;4.37;2.43;;;15.80;99.90;;;;;;5452759;26;20534;-75
2024/04/13 09:38:50;;;;;;;2.70;2.43;;;16.10;99.90;;;;;;5452043;26;20536;-76
2024/04/13 09:41:16;;;;;;;4.23;2.93;;;16.30;99.90;;;;;;5452693;26;20444;-76
2024/04/13 09:43:47;;;;;;;4.30;2.40;;;16.50;99.90;;;;;;5452752;26;20456;-76
2024/04/13 09:50:06;;;;;;;4.03;1.90;;;16.60;99.90;;;;;;5451204;26;20551;-75
2024/04/13 09:55:40;;;;;;;2.67;2.03;;;16.50;99.90;;;;;;5452154;26;20494;-75
2024/04/13 09:58:07;;;;;;;1.60;1.50;;;17.00;99.90;;;;;;5419381;26;20465;-75
2024/04/13 10:00:35;;;;;;;3.00;1.90;;;17.20;99.90;;;;;;5452406;26;20461;-76
2024/04/13 10:03:01;;;;;;;5.53;2.00;;;17.40;99.90;;;;;;5452339;26;20453;-76
2024/04/13 10:05:32;;;;;;;3.53;1.90;;;17.50;99.90;;;;;;5419291;26;20551;-75
2024/04/13 10:08:21;;;;;;;4.93;2.20;;;17.60;94.80;;;;;;5451046;26;20335;-76
2024/04/13 10:10:51;;;;;;;4.17;2.27;;;17.60;81.90;;;;;;5451339;26;20479;-75
2024/04/13 10:13:50;;;;;;;2.83;2.23;;;17.80;76.20;;;;;;5452009;26;20794;-75
2024/04/13 10:16:16;;;;;;;3.33;2.57;;;18.20;75.40;;;;;;5411654;26;20856;-76
2024/04/13 10:18:54;;;;;;;2.20;2.00;;;18.60;77.90;;;;;;5451102;26;20551;-75
2024/04/13 10:21:23;;;;;;;6.73;2.50;;;18.90;56.00;;;;;;5451052;26;20484;-76
2024/04/13 10:28:06;;;;;;;9.87;2.60;;;19.00;4.20;;;;;;5379970;26;20566;-75
2024/04/13 10:30:43;;;;;;;2.43;1.80;;;19.00;1.00;;;;;;5389291;26;20464;-74
2024/04/13 10:33:23;;;;;;;2.20;1.53;;;19.20;1.00;;;;;;5423692;26;20491;-75
2024/04/13 10:35:57;;;;;;;2.53;1.97;;;19.30;1.00;;;;;;5455610;26;20451;-75
2024/04/13 10:38:24;;;;;;;2.60;2.10;;;19.60;1.00;;;;;;5421938;26;20445;-75
2024/04/13 10:40:51;;;;;;;3.50;1.70;;;19.90;1.00;;;;;;5454724;26;20471;-75
2024/04/13 10:43:18;;;;;;;1.80;1.63;;;20.10;1.00;;;;;;5455296;26;20449;-75
2024/04/13 10:45:56;;;;;;;3.13;1.97;;;20.20;1.00;;;;;;5455297;26;20441;-75
2024/04/13 10:48:23;;;;;;;1.50;1.40;;;19.80;1.00;;;;;;5454391;26;20551;-75
2024/04/13 10:50:54;;;;;;;2.30;1.83;;;19.30;1.00;;;;;;5455209;26;20509;-75
2024/04/13 10:54:08;;;;;;;8.13;2.30;;;19.10;1.00;;;;;;5455113;26;20444;-75
2024/04/13 10:56:55;;;;;;;4.57;1.80;;;18.80;1.00;;;;;;5421678;26;20461;-75
2024/04/13 10:59:24;;;;;;;6.70;2.13;;;18.90;1.00;;;;;;5453659;26;20590;-76
2024/04/13 11:01:50;;;;;;;3.03;1.57;;;19.20;1.00;;;;;;5455067;26;20445;-75
2024/04/13 11:04:16;;;;;;;2.57;2.33;;;19.40;1.00;;;;;;5455113;26;20517;-75
2024/04/13 11:06:42;;;;;;;4.13;1.63;;;19.30;1.00;;;;;;5454742;26;20493;-75
2024/04/13 11:09:08;;;;;;;2.30;1.90;;;19.30;1.00;;;;;;5453812;26;20259;-75
2024/04/13 11:11:51;;;;;;;3.73;1.93;;;19.20;1.00;;;;;;5454943;26;20441;-76
2024/04/13 11:14:17;;;;;;;4.80;1.73;;;19.20;1.00;;;;;;5455002;26;21022;-75
2024/04/13 11:16:53;;;;;;;7.23;1.90;;;19.30;1.00;;;;;;5422680;26;20497;-76
2024/04/13 11:19:22;;;;;;;2.83;1.60;;;19.00;1.00;;;;;;5421183;26;20562;-75
2024/04/13 11:21:49;;;;;;;10.20;1.87;;;19.10;1.00;;;;;;5422916;26;20457;-76
2024/04/13 11:24:16;;;;;;;1.77;1.47;;;19.10;1.00;;;;;;5455028;26;20494;-75
2024/04/13 11:26:47;;;;;;;8.63;2.03;;;18.90;1.00;;;;;;5422801;26;20460;-75
2024/04/13 11:29:14;;;;;;;3.27;1.67;;;18.60;1.00;;;;;;5421713;26;20521;-76
2024/04/13 11:31:40;;;;;;;2.07;1.83;;;18.80;1.00;;;;;;5422958;26;20505;-76
2024/04/13 11:34:06;;;;;;;3.57;1.80;;;18.90;1.00;;;;;;5422591;26;20973;-75
2024/04/13 11:37:10;;;;;;;2.27;2.07;;;19.30;1.00;;;;;;5453671;26;20502;-75
2024/04/13 11:39:41;;;;;;;2.33;1.80;;;19.60;1.00;;;;;;5343818;26;20493;-75
2024/04/13 11:42:17;;;;;;;2.73;2.07;;;19.90;1.00;;;;;;5345014;26;20571;-75
2024/04/13 11:44:44;;;;;;;2.90;1.50;;;20.20;1.00;;;;;;5407094;26;20441;-76
2024/04/13 11:47:11;;;;;;;1.67;1.57;;;20.40;1.00;;;;;;5454269;26;20560;-76
2024/04/13 11:49:41;;;;;;;5.03;2.10;;;20.70;1.00;;;;;;5453443;26;20524;-75
2024/04/13 11:52:15;;;;;;;7.83;2.27;;;20.80;1.00;;;;;;5454462;26;20437;-76
2024/04/13 11:55:01;;;;;;;3.10;1.73;;;20.90;1.00;;;;;;5453740;26;20535;-75
2024/04/13 12:00:18;;;;;;;2.03;1.67;;;20.80;1.00;;;;;;5434031;26;20591;-75
2024/04/13 12:02:47;;;;;;;3.03;1.77;;;20.40;1.00;;;;;;5454160;26;20445;-75
2024/04/13 12:05:22;;;;;;;2.20;1.87;;;20.00;1.00;;;;;;5453809;26;20461;-75
2024/04/13 12:11:04;;;;;;;5.03;1.70;;;20.00;1.00;;;;;;5454355;26;20571;-76
2024/04/13 12:13:42;;;;;;;3.87;2.33;;;20.30;1.00;;;;;;5453731;26;20480;-76
2024/04/13 12:16:08;;;;;;;2.93;1.50;;;20.10;1.00;;;;;;5453503;26;20441;-75
2024/04/13 12:18:34;;;;;;;11.23;2.40;;;20.30;1.00;;;;;;5452811;26;20509;-75
2024/04/13 12:21:15;;;;;;;3.17;1.83;;;20.40;1.00;;;;;;5453994;26;20240;-75
2024/04/13 12:23:44;;;;;;;1.60;1.50;;;20.30;1.00;;;;;;5453898;26;20559;-75
2024/04/13 12:26:14;;;;;;;8.23;1.97;;;20.10;1.00;;;;;;5454013;26;20448;-76
2024/04/13 12:28:42;;;;;;;3.47;1.87;;;19.90;1.00;;;;;;5420774;26;20498;-76
2024/04/13 12:34:32;;;;;;;2.20;1.90;;;20.20;1.00;;;;;;5378677;26;20529;-75
2024/04/13 12:36:58;;;;;;;3.20;1.93;;;20.60;1.00;;;;;;5450738;26;20450;-75
2024/04/13 12:39:24;;;;;;;1.50;1.40;;;21.10;1.00;;;;;;5452636;26;20465;-76
2024/04/13 12:42:00;;;;;;;5.80;1.77;;;21.30;1.00;;;;;;5453526;26;20894;-76
2024/04/13 12:44:28;;;;;;;3.30;2.13;;;21.10;1.00;;;;;;5453636;26;20754;-76
2024/04/13 12:46:55;;;;;;;2.30;2.00;;;21.00;1.00;;;;;;5453787;26;20881;-75
2024/04/13 12:49:23;;;;;;;2.10;1.90;;;21.50;1.00;;;;;;5451292;26;20469;-76
2024/04/13 12:51:49;;;;;;;1.60;1.33;;;22.10;1.00;;;;;;5421625;26;20448;-76
2024/04/13 12:54:14;;;;;;;1.50;1.40;;;22.70;1.00;;;;;;5421870;26;21024;-75
2024/04/13 12:56:40;;;;;;;4.23;2.20;;;22.70;1.00;;;;;;5453261;26;20211;-76
2024/04/13 12:59:06;;;;;;;2.60;1.57;;;22.40;1.00;;;;;;5452320;26;20254;-76
2024/04/13 13:01:32;;;;;;;3.53;1.60;;;21.90;1.00;;;;;;5453497;26;20744;-75
2024/04/13 13:03:58;;;;;;;3.97;1.53;;;22.50;1.00;;;;;;5453145;26;20548;-75
2024/04/13 13:06:24;;;;;;;3.60;1.47;;;23.10;1.00;;;;;;5452426;26;20216;-74
2024/04/13 13:08:50;;;;;;;1.30;1.20;;;23.50;1.00;;;;;;5420535;26;20316;-75
2024/04/13 13:11:16;;;;;;;1.63;1.07;;;22.90;1.00;;;;;;5453163;26;20267;-76
2024/04/13 13:14:22;;;;;;;2.70;1.23;;;22.20;1.00;;;;;;5421407;26;20860;-75
2024/04/13 13:16:47;;;;;;;1.50;1.27;;;21.50;1.00;;;;;;5452549;26;20327;-75
2024/04/13 13:19:32;;;;;;;3.43;1.50;;;21.80;1.00;;;;;;5451982;26;20828;-75
2024/04/13 13:21:58;;;;;;;4.60;1.83;;;21.80;1.00;;;;;;5452113;26;20258;-76
2024/04/13 13:24:24;;;;;;;3.57;1.87;;;21.60;1.00;;;;;;5452613;26;20453;-75
2024/04/13 13:30:17;;;;;;;2.37;1.77;;;21.50;1.00;;;;;;5353947;26;20228;-75
2024/04/13 13:32:44;;;;;;;1.63;1.40;;;21.60;1.00;;;;;;5452833;26;20932;-75
2024/04/13 13:35:10;;;;;;;1.40;1.20;;;21.50;1.00;;;;;;5452670;26;21041;-76